sensor_id;sensor_type;location;lat;lon;timestamp;temperature;humidity
66722;SHT31;53633;49.932;10.884;2023-10-08T00:01:28;15.42;79.26
66722;SHT31;53633;49.932;10.884;2023-10-08T00:03:55;15.41;79.28
66722;SHT31;53633;49.932;10.884;2023-10-08T00:06:22;15.35;79.42
66722;SHT31;53633;49.932;10.884;2023-10-08T00:08:50;15.34;79.58
66722;SHT31;53633;49.932;10.884;2023-10-08T00:11:19;15.36;79.58
66722;SHT31;53633;49.932;10.884;2023-10-08T00:13:46;15.31;79.75
66722;SHT31;53633;49.932;10.884;2023-10-08T00:16:14;15.32;79.96
66722;SHT31;53633;49.932;10.884;2023-10-08T00:18:41;15.32;80.11
66722;SHT31;53633;49.932;10.884;2023-10-08T00:21:08;15.30;80.56
66722;SHT31;53633;49.932;10.884;2023-10-08T00:23:34;15.31;80.37
66722;SHT31;53633;49.932;10.884;2023-10-08T00:26:01;15.28;80.50
66722;SHT31;53633;49.932;10.884;2023-10-08T00:28:29;15.27;80.60
66722;SHT31;53633;49.932;10.884;2023-10-08T00:30:56;15.21;80.89
66722;SHT31;53633;49.932;10.884;2023-10-08T00:33:22;15.18;80.78
66722;SHT31;53633;49.932;10.884;2023-10-08T00:35:49;15.18;80.85
66722;SHT31;53633;49.932;10.884;2023-10-08T00:38:16;15.23;81.14
66722;SHT31;53633;49.932;10.884;2023-10-08T00:40:42;15.23;81.52
66722;SHT31;53633;49.932;10.884;2023-10-08T00:43:09;15.18;81.34
66722;SHT31;53633;49.932;10.884;2023-10-08T00:45:37;15.16;81.36
66722;SHT31;53633;49.932;10.884;2023-10-08T00:48:05;15.16;81.58
66722;SHT31;53633;49.932;10.884;2023-10-08T00:50:32;15.18;81.66
66722;SHT31;53633;49.932;10.884;2023-10-08T00:52:58;15.18;81.57
66722;SHT31;53633;49.932;10.884;2023-10-08T00:55:25;15.14;81.57
66722;SHT31;53633;49.932;10.884;2023-10-08T00:57:56;15.12;81.73
66722;SHT31;53633;49.932;10.884;2023-10-08T01:00:24;15.12;81.74
66722;SHT31;53633;49.932;10.884;2023-10-08T01:02:52;15.10;81.86
66722;SHT31;53633;49.932;10.884;2023-10-08T01:05:19;15.11;81.74
66722;SHT31;53633;49.932;10.884;2023-10-08T01:07:46;15.07;81.76
66722;SHT31;53633;49.932;10.884;2023-10-08T01:10:13;15.06;81.82
66722;SHT31;53633;49.932;10.884;2023-10-08T01:12:40;15.04;81.88
66722;SHT31;53633;49.932;10.884;2023-10-08T01:15:08;15.04;81.99
66722;SHT31;53633;49.932;10.884;2023-10-08T01:17:35;15.03;82.15
66722;SHT31;53633;49.932;10.884;2023-10-08T01:20:03;15.00;82.28
66722;SHT31;53633;49.932;10.884;2023-10-08T01:22:31;15.03;82.24
66722;SHT31;53633;49.932;10.884;2023-10-08T01:24:58;15.00;82.37
66722;SHT31;53633;49.932;10.884;2023-10-08T01:27:30;15.00;82.34
66722;SHT31;53633;49.932;10.884;2023-10-08T01:29:57;14.98;82.38
66722;SHT31;53633;49.932;10.884;2023-10-08T01:32:23;14.98;82.54
66722;SHT31;53633;49.932;10.884;2023-10-08T01:34:50;15.03;82.43
66722;SHT31;53633;49.932;10.884;2023-10-08T01:37:18;14.97;82.41
66722;SHT31;53633;49.932;10.884;2023-10-08T01:39:47;15.00;82.47
66722;SHT31;53633;49.932;10.884;2023-10-08T01:42:14;14.97;82.50
66722;SHT31;53633;49.932;10.884;2023-10-08T01:44:41;14.98;82.46
66722;SHT31;53633;49.932;10.884;2023-10-08T01:47:07;14.97;82.47
66722;SHT31;53633;49.932;10.884;2023-10-08T01:49:34;14.97;82.18
66722;SHT31;53633;49.932;10.884;2023-10-08T01:52:01;14.96;82.33
66722;SHT31;53633;49.932;10.884;2023-10-08T01:54:27;15.01;82.35
66722;SHT31;53633;49.932;10.884;2023-10-08T01:56:55;14.97;82.34
66722;SHT31;53633;49.932;10.884;2023-10-08T01:59:22;14.98;82.46
66722;SHT31;53633;49.932;10.884;2023-10-08T02:01:49;14.97;82.39
66722;SHT31;53633;49.932;10.884;2023-10-08T02:04:15;14.97;82.66
66722;SHT31;53633;49.932;10.884;2023-10-08T02:06:43;14.91;83.40
66722;SHT31;53633;49.932;10.884;2023-10-08T02:09:09;14.93;83.14
66722;SHT31;53633;49.932;10.884;2023-10-08T02:11:47;14.98;82.88
66722;SHT31;53633;49.932;10.884;2023-10-08T02:14:15;14.97;82.41
66722;SHT31;53633;49.932;10.884;2023-10-08T02:16:43;14.97;82.52
66722;SHT31;53633;49.932;10.884;2023-10-08T02:19:09;14.97;82.55
66722;SHT31;53633;49.932;10.884;2023-10-08T02:21:36;14.98;82.34
66722;SHT31;53633;49.932;10.884;2023-10-08T02:24:04;14.96;82.50
66722;SHT31;53633;49.932;10.884;2023-10-08T02:26:31;14.97;82.51
66722;SHT31;53633;49.932;10.884;2023-10-08T02:28:57;14.97;82.56
66722;SHT31;53633;49.932;10.884;2023-10-08T02:31:25;15.00;82.60
66722;SHT31;53633;49.932;10.884;2023-10-08T02:33:52;15.00;82.59
66722;SHT31;53633;49.932;10.884;2023-10-08T02:36:19;14.97;82.56
66722;SHT31;53633;49.932;10.884;2023-10-08T02:38:45;14.93;82.62
66722;SHT31;53633;49.932;10.884;2023-10-08T02:41:15;14.87;82.58
66722;SHT31;53633;49.932;10.884;2023-10-08T02:43:42;14.86;82.47
66722;SHT31;53633;49.932;10.884;2023-10-08T02:46:09;14.87;82.48
66722;SHT31;53633;49.932;10.884;2023-10-08T02:48:37;14.84;82.48
66722;SHT31;53633;49.932;10.884;2023-10-08T02:51:04;14.84;82.48
66722;SHT31;53633;49.932;10.884;2023-10-08T02:53:30;14.83;82.81
66722;SHT31;53633;49.932;10.884;2023-10-08T02:55:57;14.80;82.75
66722;SHT31;53633;49.932;10.884;2023-10-08T02:58:24;14.77;82.85
66722;SHT31;53633;49.932;10.884;2023-10-08T03:00:50;14.73;83.20
66722;SHT31;53633;49.932;10.884;2023-10-08T03:03:17;14.66;83.19
66722;SHT31;53633;49.932;10.884;2023-10-08T03:05:48;14.65;83.29
66722;SHT31;53633;49.932;10.884;2023-10-08T03:08:15;14.60;83.38
66722;SHT31;53633;49.932;10.884;2023-10-08T03:10:42;14.59;83.40
66722;SHT31;53633;49.932;10.884;2023-10-08T03:13:09;14.53;83.41
66722;SHT31;53633;49.932;10.884;2023-10-08T03:15:35;14.56;83.47
66722;SHT31;53633;49.932;10.884;2023-10-08T03:18:02;14.56;83.50
66722;SHT31;53633;49.932;10.884;2023-10-08T03:20:29;14.55;83.31
66722;SHT31;53633;49.932;10.884;2023-10-08T03:22:57;14.55;83.37
66722;SHT31;53633;49.932;10.884;2023-10-08T03:25:24;14.55;83.74
66722;SHT31;53633;49.932;10.884;2023-10-08T03:27:51;14.58;83.77
66722;SHT31;53633;49.932;10.884;2023-10-08T03:30:18;14.53;83.89
66722;SHT31;53633;49.932;10.884;2023-10-08T03:32:45;14.59;83.98
66722;SHT31;53633;49.932;10.884;2023-10-08T03:35:12;14.59;84.01
66722;SHT31;53633;49.932;10.884;2023-10-08T03:37:39;14.59;83.83
66722;SHT31;53633;49.932;10.884;2023-10-08T03:40:08;14.58;84.11
66722;SHT31;53633;49.932;10.884;2023-10-08T03:42:35;14.56;84.06
66722;SHT31;53633;49.932;10.884;2023-10-08T03:45:02;14.55;84.12
66722;SHT31;53633;49.932;10.884;2023-10-08T03:47:29;14.49;84.04
66722;SHT31;53633;49.932;10.884;2023-10-08T03:49:56;14.48;84.06
66722;SHT31;53633;49.932;10.884;2023-10-08T03:52:23;14.48;84.12
66722;SHT31;53633;49.932;10.884;2023-10-08T03:54:50;14.46;84.04
66722;SHT31;53633;49.932;10.884;2023-10-08T03:57:18;14.42;83.97
66722;SHT31;53633;49.932;10.884;2023-10-08T03:59:44;14.46;84.04
66722;SHT31;53633;49.932;10.884;2023-10-08T04:02:11;14.42;84.20
66722;SHT31;53633;49.932;10.884;2023-10-08T04:04:38;14.41;84.30
66722;SHT31;53633;49.932;10.884;2023-10-08T04:07:04;14.41;84.49
66722;SHT31;53633;49.932;10.884;2023-10-08T04:09:31;14.43;84.54
66722;SHT31;53633;49.932;10.884;2023-10-08T04:11:57;14.46;84.47
66722;SHT31;53633;49.932;10.884;2023-10-08T04:14:27;14.49;84.38
66722;SHT31;53633;49.932;10.884;2023-10-08T04:16:54;14.46;84.62
66722;SHT31;53633;49.932;10.884;2023-10-08T04:19:22;14.45;84.53
66722;SHT31;53633;49.932;10.884;2023-10-08T04:21:49;14.48;84.59
66722;SHT31;53633;49.932;10.884;2023-10-08T04:24:15;14.49;84.52
66722;SHT31;53633;49.932;10.884;2023-10-08T04:26:42;14.49;84.67
66722;SHT31;53633;49.932;10.884;2023-10-08T04:29:09;14.46;84.65
66722;SHT31;53633;49.932;10.884;2023-10-08T04:31:37;14.51;84.69
66722;SHT31;53633;49.932;10.884;2023-10-08T04:34:05;14.48;84.80
66722;SHT31;53633;49.932;10.884;2023-10-08T04:36:31;14.51;84.62
66722;SHT31;53633;49.932;10.884;2023-10-08T04:38:58;14.53;84.66
66722;SHT31;53633;49.932;10.884;2023-10-08T04:41:25;14.56;84.57
66722;SHT31;53633;49.932;10.884;2023-10-08T04:43:52;14.62;84.36
66722;SHT31;53633;49.932;10.884;2023-10-08T04:46:18;14.62;84.18
66722;SHT31;53633;49.932;10.884;2023-10-08T04:48:47;14.65;84.50
66722;SHT31;53633;49.932;10.884;2023-10-08T04:51:13;14.63;84.53
66722;SHT31;53633;49.932;10.884;2023-10-08T04:53:40;14.69;84.34
66722;SHT31;53633;49.932;10.884;2023-10-08T04:56:08;14.68;84.35
66722;SHT31;53633;49.932;10.884;2023-10-08T04:58:35;14.66;84.34
66722;SHT31;53633;49.932;10.884;2023-10-08T05:01:02;14.65;84.30
66722;SHT31;53633;49.932;10.884;2023-10-08T05:03:29;14.63;84.34
66722;SHT31;53633;49.932;10.884;2023-10-08T05:05:58;14.66;84.41
66722;SHT31;53633;49.932;10.884;2023-10-08T05:08:24;14.65;84.39
66722;SHT31;53633;49.932;10.884;2023-10-08T05:10:51;14.69;84.38
66722;SHT31;53633;49.932;10.884;2023-10-08T05:13:18;14.68;84.53
66722;SHT31;53633;49.932;10.884;2023-10-08T05:15:44;14.70;84.66
66722;SHT31;53633;49.932;10.884;2023-10-08T05:18:11;14.70;84.53
66722;SHT31;53633;49.932;10.884;2023-10-08T05:20:39;14.69;84.53
66722;SHT31;53633;49.932;10.884;2023-10-08T05:23:09;14.66;84.57
66722;SHT31;53633;49.932;10.884;2023-10-08T05:25:41;14.66;84.73
66722;SHT31;53633;49.932;10.884;2023-10-08T05:28:08;14.68;84.73
66722;SHT31;53633;49.932;10.884;2023-10-08T05:30:35;14.66;84.96
66722;SHT31;53633;49.932;10.884;2023-10-08T05:33:01;14.68;84.83
66722;SHT31;53633;49.932;10.884;2023-10-08T05:35:28;14.63;84.87
66722;SHT31;53633;49.932;10.884;2023-10-08T05:37:58;14.62;84.90
66722;SHT31;53633;49.932;10.884;2023-10-08T05:40:26;14.53;85.64
66722;SHT31;53633;49.932;10.884;2023-10-08T05:42:53;14.52;85.38
66722;SHT31;53633;49.932;10.884;2023-10-08T05:45:19;14.56;85.16
66722;SHT31;53633;49.932;10.884;2023-10-08T05:47:46;14.55;85.42
66722;SHT31;53633;49.932;10.884;2023-10-08T05:50:13;14.62;85.29
66722;SHT31;53633;49.932;10.884;2023-10-08T05:52:40;14.65;85.09
66722;SHT31;53633;49.932;10.884;2023-10-08T05:55:07;14.69;84.93
66722;SHT31;53633;49.932;10.884;2023-10-08T05:57:35;14.75;84.78
66722;SHT31;53633;49.932;10.884;2023-10-08T06:00:02;14.73;85.01
66722;SHT31;53633;49.932;10.884;2023-10-08T06:02:30;14.79;84.97
66722;SHT31;53633;49.932;10.884;2023-10-08T06:04:57;14.79;84.89
66722;SHT31;53633;49.932;10.884;2023-10-08T06:07:24;14.79;84.73
66722;SHT31;53633;49.932;10.884;2023-10-08T06:09:51;14.80;84.71
66722;SHT31;53633;49.932;10.884;2023-10-08T06:12:17;14.81;84.68
66722;SHT31;53633;49.932;10.884;2023-10-08T06:14:45;14.86;84.66
66722;SHT31;53633;49.932;10.884;2023-10-08T06:17:12;14.89;84.70
66722;SHT31;53633;49.932;10.884;2023-10-08T06:19:39;14.91;84.61
66722;SHT31;53633;49.932;10.884;2023-10-08T06:22:05;14.91;84.53
66722;SHT31;53633;49.932;10.884;2023-10-08T06:24:32;14.94;84.48
66722;SHT31;53633;49.932;10.884;2023-10-08T06:26:59;14.96;84.44
66722;SHT31;53633;49.932;10.884;2023-10-08T06:29:25;15.01;84.51
66722;SHT31;53633;49.932;10.884;2023-10-08T06:31:54;15.04;84.40
66722;SHT31;53633;49.932;10.884;2023-10-08T06:34:21;15.07;84.91
66722;SHT31;53633;49.932;10.884;2023-10-08T06:36:48;15.10;84.55
66722;SHT31;53633;49.932;10.884;2023-10-08T06:39:15;15.12;84.37
66722;SHT31;53633;49.932;10.884;2023-10-08T06:41:41;15.12;84.71
66722;SHT31;53633;49.932;10.884;2023-10-08T06:44:14;15.08;84.91
66722;SHT31;53633;49.932;10.884;2023-10-08T06:46:42;15.10;84.54
66722;SHT31;53633;49.932;10.884;2023-10-08T06:49:11;15.11;84.27
66722;SHT31;53633;49.932;10.884;2023-10-08T06:51:38;15.18;84.16
66722;SHT31;53633;49.932;10.884;2023-10-08T06:54:05;15.25;84.04
66722;SHT31;53633;49.932;10.884;2023-10-08T06:56:32;15.30;84.08
66722;SHT31;53633;49.932;10.884;2023-10-08T06:58:58;15.35;83.89
66722;SHT31;53633;49.932;10.884;2023-10-08T07:01:25;15.36;84.08
66722;SHT31;53633;49.932;10.884;2023-10-08T07:03:53;15.41;83.89
66722;SHT31;53633;49.932;10.884;2023-10-08T07:06:22;15.56;83.89
66722;SHT31;53633;49.932;10.884;2023-10-08T07:08:48;15.63;83.97
66722;SHT31;53633;49.932;10.884;2023-10-08T07:11:15;15.73;83.91
66722;SHT31;53633;49.932;10.884;2023-10-08T07:13:42;15.82;83.27
66722;SHT31;53633;49.932;10.884;2023-10-08T07:16:08;15.90;83.11
66722;SHT31;53633;49.932;10.884;2023-10-08T07:18:35;15.99;82.61
66722;SHT31;53633;49.932;10.884;2023-10-08T07:21:02;16.09;82.54
66722;SHT31;53633;49.932;10.884;2023-10-08T07:23:30;16.13;82.52
66722;SHT31;53633;49.932;10.884;2023-10-08T07:25:58;16.18;82.71
66722;SHT31;53633;49.932;10.884;2023-10-08T07:28:25;16.21;82.21
66722;SHT31;53633;49.932;10.884;2023-10-08T07:30:52;16.28;81.26
66722;SHT31;53633;49.932;10.884;2023-10-08T07:33:19;16.32;80.81
66722;SHT31;53633;49.932;10.884;2023-10-08T07:35:46;16.41;80.74
66722;SHT31;53633;49.932;10.884;2023-10-08T07:38:13;16.51;80.17
66722;SHT31;53633;49.932;10.884;2023-10-08T07:40:41;16.51;79.82
66722;SHT31;53633;49.932;10.884;2023-10-08T07:43:08;16.65;79.61
66722;SHT31;53633;49.932;10.884;2023-10-08T07:45:35;16.75;79.05
66722;SHT31;53633;49.932;10.884;2023-10-08T07:48:02;16.83;78.93
66722;SHT31;53633;49.932;10.884;2023-10-08T07:50:29;16.89;78.54
66722;SHT31;53633;49.932;10.884;2023-10-08T07:52:56;16.97;78.47
66722;SHT31;53633;49.932;10.884;2023-10-08T07:55:22;17.13;78.03
66722;SHT31;53633;49.932;10.884;2023-10-08T07:57:50;17.28;77.33
66722;SHT31;53633;49.932;10.884;2023-10-08T08:00:17;17.27;77.20
66722;SHT31;53633;49.932;10.884;2023-10-08T08:02:44;17.27;77.46
66722;SHT31;53633;49.932;10.884;2023-10-08T08:05:11;17.23;77.42
66722;SHT31;53633;49.932;10.884;2023-10-08T08:07:38;17.20;77.36
66722;SHT31;53633;49.932;10.884;2023-10-08T08:10:05;17.16;77.64
66722;SHT31;53633;49.932;10.884;2023-10-08T08:12:32;17.13;77.55
66722;SHT31;53633;49.932;10.884;2023-10-08T08:15:01;17.14;77.74
66722;SHT31;53633;49.932;10.884;2023-10-08T08:17:27;17.07;78.10
66722;SHT31;53633;49.932;10.884;2023-10-08T08:19:54;16.97;78.80
66722;SHT31;53633;49.932;10.884;2023-10-08T08:22:22;16.92;78.94
66722;SHT31;53633;49.932;10.884;2023-10-08T08:24:50;16.86;79.19
66722;SHT31;53633;49.932;10.884;2023-10-08T08:27:17;16.87;79.16
66722;SHT31;53633;49.932;10.884;2023-10-08T08:29:43;16.89;79.03
66722;SHT31;53633;49.932;10.884;2023-10-08T08:32:12;16.87;79.35
66722;SHT31;53633;49.932;10.884;2023-10-08T08:34:38;16.92;79.58
66722;SHT31;53633;49.932;10.884;2023-10-08T08:37:05;16.96;79.38
66722;SHT31;53633;49.932;10.884;2023-10-08T08:39:32;17.00;79.08
66722;SHT31;53633;49.932;10.884;2023-10-08T08:42:00;17.13;78.72
66722;SHT31;53633;49.932;10.884;2023-10-08T08:44:27;17.20;78.21
66722;SHT31;53633;49.932;10.884;2023-10-08T08:46:56;17.28;78.17
66722;SHT31;53633;49.932;10.884;2023-10-08T08:49:26;17.28;78.24
66722;SHT31;53633;49.932;10.884;2023-10-08T08:51:54;17.34;78.03
66722;SHT31;53633;49.932;10.884;2023-10-08T08:54:22;17.42;77.91
66722;SHT31;53633;49.932;10.884;2023-10-08T08:56:49;17.51;77.57
66722;SHT31;53633;49.932;10.884;2023-10-08T08:59:16;17.68;77.23
66722;SHT31;53633;49.932;10.884;2023-10-08T09:01:43;17.75;76.62
66722;SHT31;53633;49.932;10.884;2023-10-08T09:04:11;17.81;76.29
66722;SHT31;53633;49.932;10.884;2023-10-08T09:06:39;17.75;76.42
66722;SHT31;53633;49.932;10.884;2023-10-08T09:09:06;17.67;76.39
66722;SHT31;53633;49.932;10.884;2023-10-08T09:11:35;17.74;76.27
66722;SHT31;53633;49.932;10.884;2023-10-08T09:14:04;17.77;76.06
66722;SHT31;53633;49.932;10.884;2023-10-08T09:16:35;17.71;76.58
66722;SHT31;53633;49.932;10.884;2023-10-08T09:19:02;17.71;76.54
66722;SHT31;53633;49.932;10.884;2023-10-08T09:21:30;17.68;76.77
66722;SHT31;53633;49.932;10.884;2023-10-08T09:23:59;17.79;76.92
66722;SHT31;53633;49.932;10.884;2023-10-08T09:26:26;17.81;76.86
66722;SHT31;53633;49.932;10.884;2023-10-08T09:28:53;17.82;76.37
66722;SHT31;53633;49.932;10.884;2023-10-08T09:31:23;17.83;76.29
66722;SHT31;53633;49.932;10.884;2023-10-08T09:33:53;18.02;76.12
66722;SHT31;53633;49.932;10.884;2023-10-08T09:36:22;18.06;75.74
66722;SHT31;53633;49.932;10.884;2023-10-08T09:38:50;18.14;75.44
66722;SHT31;53633;49.932;10.884;2023-10-08T09:41:19;18.07;75.46
66722;SHT31;53633;49.932;10.884;2023-10-08T09:43:46;18.17;75.53
66722;SHT31;53633;49.932;10.884;2023-10-08T09:46:16;18.36;75.22
66722;SHT31;53633;49.932;10.884;2023-10-08T09:48:50;18.72;74.81
66722;SHT31;53633;49.932;10.884;2023-10-08T09:51:18;18.85;74.19
66722;SHT31;53633;49.932;10.884;2023-10-08T09:53:52;19.03;73.33
66722;SHT31;53633;49.932;10.884;2023-10-08T09:56:20;19.10;73.33
66722;SHT31;53633;49.932;10.884;2023-10-08T09:58:47;19.10;72.86
66722;SHT31;53633;49.932;10.884;2023-10-08T10:01:14;19.01;72.88
66722;SHT31;53633;49.932;10.884;2023-10-08T10:03:41;19.06;72.69
66722;SHT31;53633;49.932;10.884;2023-10-08T10:06:12;18.96;72.93
66722;SHT31;53633;49.932;10.884;2023-10-08T10:08:39;18.84;73.38
66722;SHT31;53633;49.932;10.884;2023-10-08T10:11:06;18.72;73.78
66722;SHT31;53633;49.932;10.884;2023-10-08T10:13:38;18.63;74.15
66722;SHT31;53633;49.932;10.884;2023-10-08T10:16:09;18.64;74.66
66722;SHT31;53633;49.932;10.884;2023-10-08T10:18:36;18.58;74.70
66722;SHT31;53633;49.932;10.884;2023-10-08T10:21:25;18.55;74.83
66722;SHT31;53633;49.932;10.884;2023-10-08T10:23:52;18.65;74.41
66722;SHT31;53633;49.932;10.884;2023-10-08T10:26:24;18.72;74.15
66722;SHT31;53633;49.932;10.884;2023-10-08T10:29:23;18.71;74.36
66722;SHT31;53633;49.932;10.884;2023-10-08T10:31:51;18.72;74.37
66722;SHT31;53633;49.932;10.884;2023-10-08T10:34:19;18.67;75.13
66722;SHT31;53633;49.932;10.884;2023-10-08T10:36:47;18.61;74.99
66722;SHT31;53633;49.932;10.884;2023-10-08T10:39:15;18.57;75.14
66722;SHT31;53633;49.932;10.884;2023-10-08T10:41:44;18.51;75.48
66722;SHT31;53633;49.932;10.884;2023-10-08T10:44:11;18.37;75.77
66722;SHT31;53633;49.932;10.884;2023-10-08T10:46:40;18.38;75.86
66722;SHT31;53633;49.932;10.884;2023-10-08T10:49:08;18.34;76.09
66722;SHT31;53633;49.932;10.884;2023-10-08T10:51:34;18.34;76.20
66722;SHT31;53633;49.932;10.884;2023-10-08T10:54:02;18.32;76.30
66722;SHT31;53633;49.932;10.884;2023-10-08T10:56:28;18.23;76.57
66722;SHT31;53633;49.932;10.884;2023-10-08T10:58:59;18.22;76.75
66722;SHT31;53633;49.932;10.884;2023-10-08T11:01:26;18.25;76.55
66722;SHT31;53633;49.932;10.884;2023-10-08T11:03:56;18.26;76.33
66722;SHT31;53633;49.932;10.884;2023-10-08T11:06:25;18.22;76.55
66722;SHT31;53633;49.932;10.884;2023-10-08T11:08:52;18.20;76.75
66722;SHT31;53633;49.932;10.884;2023-10-08T11:11:25;18.17;76.75
66722;SHT31;53633;49.932;10.884;2023-10-08T11:13:56;18.10;76.98
66722;SHT31;53633;49.932;10.884;2023-10-08T11:16:23;18.07;76.99
66722;SHT31;53633;49.932;10.884;2023-10-08T11:18:50;18.03;77.29
66722;SHT31;53633;49.932;10.884;2023-10-08T11:21:19;17.89;77.26
66722;SHT31;53633;49.932;10.884;2023-10-08T11:23:47;17.78;77.28
66722;SHT31;53633;49.932;10.884;2023-10-08T11:26:14;17.60;77.43
66722;SHT31;53633;49.932;10.884;2023-10-08T11:28:42;17.61;77.42
66722;SHT31;53633;49.932;10.884;2023-10-08T11:31:10;17.58;77.42
66722;SHT31;53633;49.932;10.884;2023-10-08T11:33:39;17.20;78.02
66722;SHT31;53633;49.932;10.884;2023-10-08T11:36:07;17.26;77.92
66722;SHT31;53633;49.932;10.884;2023-10-08T11:38:39;17.22;77.71
66722;SHT31;53633;49.932;10.884;2023-10-08T11:41:12;17.12;77.37
66722;SHT31;53633;49.932;10.884;2023-10-08T11:43:39;17.09;77.53
66722;SHT31;53633;49.932;10.884;2023-10-08T11:46:06;16.90;77.67
66722;SHT31;53633;49.932;10.884;2023-10-08T11:48:33;16.86;77.80
66722;SHT31;53633;49.932;10.884;2023-10-08T11:51:00;16.86;77.75
66722;SHT31;53633;49.932;10.884;2023-10-08T11:53:26;16.78;77.96
66722;SHT31;53633;49.932;10.884;2023-10-08T11:55:54;16.82;77.79
66722;SHT31;53633;49.932;10.884;2023-10-08T11:58:21;16.76;77.48
66722;SHT31;53633;49.932;10.884;2023-10-08T12:00:48;16.76;76.93
66722;SHT31;53633;49.932;10.884;2023-10-08T12:03:15;16.72;77.29
66722;SHT31;53633;49.932;10.884;2023-10-08T12:05:43;16.69;77.23
66722;SHT31;53633;49.932;10.884;2023-10-08T12:08:10;16.61;77.28
66722;SHT31;53633;49.932;10.884;2023-10-08T12:10:36;16.49;77.32
66722;SHT31;53633;49.932;10.884;2023-10-08T12:13:06;16.30;77.85
66722;SHT31;53633;49.932;10.884;2023-10-08T12:15:32;16.25;78.21
66722;SHT31;53633;49.932;10.884;2023-10-08T12:17:59;16.28;78.14
66722;SHT31;53633;49.932;10.884;2023-10-08T12:20:26;16.32;78.42
66722;SHT31;53633;49.932;10.884;2023-10-08T12:22:55;16.18;78.93
66722;SHT31;53633;49.932;10.884;2023-10-08T12:25:22;16.22;78.95
66722;SHT31;53633;49.932;10.884;2023-10-08T12:27:49;16.07;79.31
66722;SHT31;53633;49.932;10.884;2023-10-08T12:30:17;15.99;79.36
66722;SHT31;53633;49.932;10.884;2023-10-08T12:32:44;15.87;79.71
66722;SHT31;53633;49.932;10.884;2023-10-08T12:35:10;15.82;79.86
66722;SHT31;53633;49.932;10.884;2023-10-08T12:37:37;15.76;79.74
66722;SHT31;53633;49.932;10.884;2023-10-08T12:40:05;15.69;79.97
66722;SHT31;53633;49.932;10.884;2023-10-08T12:42:32;15.49;80.40
66722;SHT31;53633;49.932;10.884;2023-10-08T12:44:59;15.62;80.28
66722;SHT31;53633;49.932;10.884;2023-10-08T12:47:27;15.54;80.51
66722;SHT31;53633;49.932;10.884;2023-10-08T12:49:54;15.54;80.55
66722;SHT31;53633;49.932;10.884;2023-10-08T12:52:20;15.63;80.67
66722;SHT31;53633;49.932;10.884;2023-10-08T12:54:47;15.63;80.73
66722;SHT31;53633;49.932;10.884;2023-10-08T12:57:14;15.79;80.14
66722;SHT31;53633;49.932;10.884;2023-10-08T12:59:40;15.73;80.17
66722;SHT31;53633;49.932;10.884;2023-10-08T13:02:07;15.72;80.02
66722;SHT31;53633;49.932;10.884;2023-10-08T13:04:35;15.81;79.75
66722;SHT31;53633;49.932;10.884;2023-10-08T13:07:02;15.72;79.58
66722;SHT31;53633;49.932;10.884;2023-10-08T13:09:29;15.67;79.34
66722;SHT31;53633;49.932;10.884;2023-10-08T13:11:57;15.69;79.37
66722;SHT31;53633;49.932;10.884;2023-10-08T13:14:24;15.85;79.14
66722;SHT31;53633;49.932;10.884;2023-10-08T13:16:51;15.75;79.33
66722;SHT31;53633;49.932;10.884;2023-10-08T13:19:18;15.67;79.66
66722;SHT31;53633;49.932;10.884;2023-10-08T13:21:46;15.67;79.99
66722;SHT31;53633;49.932;10.884;2023-10-08T13:24:12;15.73;79.67
66722;SHT31;53633;49.932;10.884;2023-10-08T13:26:39;15.79;79.81
66722;SHT31;53633;49.932;10.884;2023-10-08T13:29:06;15.79;79.83
66722;SHT31;53633;49.932;10.884;2023-10-08T13:31:33;15.85;79.51
66722;SHT31;53633;49.932;10.884;2023-10-08T13:33:59;15.92;79.05
66722;SHT31;53633;49.932;10.884;2023-10-08T13:36:26;15.89;78.82
66722;SHT31;53633;49.932;10.884;2023-10-08T13:38:54;15.92;78.45
66722;SHT31;53633;49.932;10.884;2023-10-08T13:41:21;15.86;78.63
66722;SHT31;53633;49.932;10.884;2023-10-08T13:43:49;15.92;78.30
66722;SHT31;53633;49.932;10.884;2023-10-08T13:46:17;15.87;78.41
66722;SHT31;53633;49.932;10.884;2023-10-08T13:48:45;15.99;78.15
66722;SHT31;53633;49.932;10.884;2023-10-08T13:51:14;16.13;77.78
66722;SHT31;53633;49.932;10.884;2023-10-08T13:53:41;16.03;77.91
66722;SHT31;53633;49.932;10.884;2023-10-08T13:56:09;16.07;77.87
66722;SHT31;53633;49.932;10.884;2023-10-08T13:58:36;16.16;77.83
66722;SHT31;53633;49.932;10.884;2023-10-08T14:01:03;16.04;77.54
66722;SHT31;53633;49.932;10.884;2023-10-08T14:03:30;16.18;77.43
66722;SHT31;53633;49.932;10.884;2023-10-08T14:05:57;16.14;77.72
66722;SHT31;53633;49.932;10.884;2023-10-08T14:08:24;16.21;77.29
66722;SHT31;53633;49.932;10.884;2023-10-08T14:10:51;16.30;76.97
66722;SHT31;53633;49.932;10.884;2023-10-08T14:13:19;16.20;77.08
66722;SHT31;53633;49.932;10.884;2023-10-08T14:15:46;15.97;77.96
66722;SHT31;53633;49.932;10.884;2023-10-08T14:18:13;15.96;77.92
66722;SHT31;53633;49.932;10.884;2023-10-08T14:20:40;16.00;77.82
66722;SHT31;53633;49.932;10.884;2023-10-08T14:23:07;16.10;77.58
66722;SHT31;53633;49.932;10.884;2023-10-08T14:25:33;16.11;77.30
66722;SHT31;53633;49.932;10.884;2023-10-08T14:28:00;16.17;77.21
66722;SHT31;53633;49.932;10.884;2023-10-08T14:30:28;16.14;77.29
66722;SHT31;53633;49.932;10.884;2023-10-08T14:32:55;16.07;77.52
66722;SHT31;53633;49.932;10.884;2023-10-08T14:35:22;16.03;77.64
66722;SHT31;53633;49.932;10.884;2023-10-08T14:37:49;16.14;77.62
66722;SHT31;53633;49.932;10.884;2023-10-08T14:40:15;16.14;77.25
66722;SHT31;53633;49.932;10.884;2023-10-08T14:42:42;16.18;77.46
66722;SHT31;53633;49.932;10.884;2023-10-08T14:45:09;16.25;77.42
66722;SHT31;53633;49.932;10.884;2023-10-08T14:47:37;16.21;76.85
66722;SHT31;53633;49.932;10.884;2023-10-08T14:50:05;16.22;76.99
66722;SHT31;53633;49.932;10.884;2023-10-08T14:52:32;16.25;77.20
66722;SHT31;53633;49.932;10.884;2023-10-08T14:54:58;16.22;77.11
66722;SHT31;53633;49.932;10.884;2023-10-08T14:57:25;16.28;77.17
66722;SHT31;53633;49.932;10.884;2023-10-08T14:59:52;16.31;77.27
66722;SHT31;53633;49.932;10.884;2023-10-08T15:02:19;16.35;77.17
66722;SHT31;53633;49.932;10.884;2023-10-08T15:04:47;16.09;78.25
66722;SHT31;53633;49.932;10.884;2023-10-08T15:07:14;16.03;77.90
66722;SHT31;53633;49.932;10.884;2023-10-08T15:09:40;16.11;78.07
66722;SHT31;53633;49.932;10.884;2023-10-08T15:12:07;16.06;78.62
66722;SHT31;53633;49.932;10.884;2023-10-08T15:14:35;15.96;79.26
66722;SHT31;53633;49.932;10.884;2023-10-08T15:17:02;16.04;79.03